Aeroporto :
LOGIN :

Iscrizione | Disclaimer

   EN    FR    IT 

 










Sommario :    VFR   VFR Marginale   IFR   IFR Intensivo   IFR Molto Intensivo
Visibilità : 
Base nubi : 
>= 8 km
>= 3000ft
5 / 8 km
1000 / 3000 ft
1500m / 5 km
500 / 1000 ft
800 / 1500m
200 / 500 ft
< 800m
< 200 ft
Simboli :   Temporali  Nebbia  Neve Forte  Precipitazioni Forti  Vento > 20 kt
SIGMETs :   Varie  Temporali  Ghiacco  Turbolenza  Onda orograficha  Ceneri Vulcaniche






- Altitudine del aeroporto : 34 ft
- Codice IATA : BLK


EGNH - Blackpool

ULTIMO METAR :
  • 201750Z 28026KT 9999 SCT031 06/01 Q1010

METARs OBSOLETI :
  • 201720Z 28025KT 9999 SCT027 06/01 Q1009
  • 201650Z 28027G39KT 9999 VCSH FEW020 SCT031CB 05/00 Q1008
  • 201620Z 29025KT 9999 VCSH FEW020 SCT032CB 06/01 Q1008
  • 201550Z 29028G42KT 9999 VCSH FEW020 FEW035CB 06/01 Q1007
  • 201520Z 30026KT 9999 VCSH FEW016 FEW030CB 06/01 Q1007

TAF TAF EGNH
Valido dal 20 a 18 ore il 20 a 21 ore UTC


201700Z 2018/2021 29020KT 9999 SCT022
TEMPO 2018/2021 31023G35KT 6000 SHRA
ATIS : +44 1253 343 434 (x8315)



MetMap, La meteo Aeronautica in un colpo d'occhio ! - Copyright ORBIFLY Dicembre 2007 - Disclaimer

ORBIFLY MET'MAP TEAM :

Programmazione e sviluppo : Alexandra Zaïnal
Concezione : Baudouin d'Aumeries
Aiuto per la programmazione : Marc-Olivier Méhu
Supporto tecnico e logistico : Manuel Goepfert
Aiuto per la traduzione : Arnaldo La Scala

Contatto : metmap@orbifly.com




FONTI E CREDITI :

   NOAA